Time;durP1;ratioP1;P1;durP2;ratioP2;P2;SDS_P1;SDS_P2;PMS_P1;PMS_P2;Temp;Humidity;BMP_temperature;BMP_pressure;BME280_temperature;BME280_humidity;BME280_pressure;Samples;Min_cycle;Max_cycle;Signal;HPM_P1;HPM_P2
2022/04/30 00:02:22;;;;;;;12.35;6.57;;;;;;;5.70;78.33;102915.53;6185473;23;20420;-80
2022/04/30 00:04:48;;;;;;;14.98;6.45;;;;;;;5.57;78.36;102893.47;6185383;23;20013;-80
2022/04/30 00:07:19;;;;;;;13.05;6.70;;;;;;;5.65;78.69;102912.19;6186355;23;20011;-81
2022/04/30 00:09:46;;;;;;;11.95;6.65;;;;;;;5.70;78.73;102923.25;6187668;23;20382;-80
2022/04/30 00:12:12;;;;;;;19.20;8.82;;;;;;;5.55;78.93;102901.16;6187858;23;20051;-80
2022/04/30 00:14:39;;;;;;;15.45;7.30;;;;;;;5.43;78.81;102880.78;6187415;23;20429;-80
2022/04/30 00:17:05;;;;;;;12.90;6.47;;;;;;;5.53;79.06;102900.34;6187865;23;20028;-80
2022/04/30 00:19:30;;;;;;;14.50;6.90;;;;;;;5.09;79.40;102836.66;6187436;23;20005;-80
2022/04/30 00:21:56;;;;;;;16.50;7.40;;;;;;;5.33;79.31;102879.16;6187227;23;20080;-81
2022/04/30 00:24:23;;;;;;;14.73;6.70;;;;;;;5.54;79.45;102921.69;6187358;23;20013;-80
2022/04/30 00:26:48;;;;;;;14.77;7.70;;;;;;;5.47;79.27;102911.47;6187724;23;20060;-80
2022/04/30 00:29:14;;;;;;;14.27;6.35;;;;;;;5.18;79.57;102868.16;6187136;23;20005;-81
2022/04/30 00:31:40;;;;;;;14.80;6.93;;;;;;;5.44;79.89;102910.66;6160864;23;20001;-80
2022/04/30 00:34:05;;;;;;;15.60;6.72;;;;;;;5.36;79.92;102904.75;6187190;23;20012;-81
2022/04/30 00:36:31;;;;;;;15.15;7.47;;;;;;;5.38;80.05;102915.84;6187657;23;20001;-80
2022/04/30 00:38:56;;;;;;;14.52;6.55;;;;;;;5.03;80.38;102847.81;6187093;23;20390;-80
2022/04/30 00:41:23;;;;;;;15.93;6.65;;;;;;;5.17;80.33;102879.28;6187468;23;20011;-80
2022/04/30 00:43:50;;;;;;;13.52;5.88;;;;;;;5.10;80.41;102872.50;6160845;23;20012;-80
2022/04/30 00:46:18;;;;;;;13.50;6.38;;;;;;;5.30;80.83;102902.22;6187677;23;20008;-80
2022/04/30 00:48:44;;;;;;;12.98;6.35;;;;;;;5.05;80.90;102874.25;6160797;23;20012;-81
2022/04/30 00:51:15;;;;;;;12.35;6.97;;;;;;;5.16;81.33;102902.34;6187523;23;20301;-80
2022/04/30 00:53:46;;;;;;;13.65;6.57;;;;;;;5.12;81.70;102900.69;6187107;23;20028;-80
2022/04/30 00:56:13;;;;;;;17.58;6.97;;;;;;;5.07;81.67;102904.97;6187309;23;20001;-80
2022/04/30 00:58:41;;;;;;;14.02;6.88;;;;;;;4.84;81.94;102874.41;6186938;23;20009;-80
2022/04/30 01:01:07;;;;;;;17.20;7.20;;;;;;;4.97;82.29;102898.22;6187169;23;20335;-80
2022/04/30 01:03:32;;;;;;;16.05;6.80;;;;;;;4.94;82.52;102888.00;6159843;23;20012;-80
2022/04/30 01:06:02;;;;;;;13.07;6.82;;;;;;;4.87;83.10;102894.84;6187322;23;20363;-80
2022/04/30 01:08:28;;;;;;;14.52;7.28;;;;;;;4.83;82.86;102891.47;6187287;23;20032;-80
2022/04/30 01:11:00;;;;;;;13.13;7.13;;;;;;;4.49;82.87;102854.13;6187209;23;20335;-80
2022/04/30 01:13:26;;;;;;;13.88;7.05;;;;;;;4.41;83.09;102843.91;6187216;23;20009;-80
2022/04/30 01:15:51;;;;;;;15.80;7.50;;;;;;;4.41;83.95;102849.03;6187085;23;20005;-80
2022/04/30 01:18:17;;;;;;;12.15;6.88;;;;;;;4.55;83.85;102893.31;6186653;23;20013;-80
2022/04/30 01:20:51;;;;;;;20.05;8.25;;;;;;;4.49;84.35;102880.53;6187424;23;20012;-80
2022/04/30 01:23:18;;;;;;;21.52;8.27;;;;;;;4.55;84.38;102889.91;6187038;23;20033;-80
2022/04/30 01:25:46;;;;;;;17.83;7.13;;;;;;;4.35;84.76;102855.91;6186718;23;20013;-81
2022/04/30 01:28:12;;;;;;;17.85;7.72;;;;;;;4.52;85.24;102885.69;6186590;23;20427;-80
2022/04/30 01:30:38;;;;;;;17.80;7.60;;;;;;;4.51;84.93;102883.94;6186784;23;20439;-80
2022/04/30 01:38:32;;;;;;;21.33;7.78;;;;;;;4.17;85.10;102841.50;6186579;23;20019;-80
2022/04/30 01:40:57;;;;;;;20.33;7.45;;;;;;;4.33;85.18;102881.50;6186464;23;20001;-81
2022/04/30 01:43:24;;;;;;;19.67;7.97;;;;;;;4.16;85.32;102862.81;6186825;23;20001;-80
2022/04/30 01:45:50;;;;;;;17.45;7.55;;;;;;;4.30;85.97;102882.34;6187137;23;20008;-80
2022/04/30 01:48:16;;;;;;;19.65;8.10;;;;;;;4.18;86.32;102866.19;6186955;23;20000;-80
2022/04/30 01:50:43;;;;;;;18.45;8.48;;;;;;;4.29;86.20;102877.22;6186677;23;20036;-80
2022/04/30 01:53:17;;;;;;;17.88;7.97;;;;;;;2.76;85.88;102629.06;6189654;22;20013;-80
2022/04/30 01:55:46;;;;;;;15.93;8.35;;;;;;;3.25;86.10;102716.59;6186278;23;20427;-81
2022/04/30 01:58:11;;;;;;;20.88;9.20;;;;;;;3.27;86.27;102731.91;6186845;23;20029;-81
2022/04/30 02:01:18;;;;;;;19.77;9.30;;;;;;;3.23;86.23;102717.41;6186540;23;20009;-80
2022/04/30 02:03:44;;;;;;;19.33;9.73;;;;;;;2.67;86.97;102639.28;6123552;23;20481;-80
2022/04/30 02:06:12;;;;;;;22.80;10.32;;;;;;;2.66;87.07;102629.94;6186233;23;20008;-81
2022/04/30 02:08:37;;;;;;;18.25;10.10;;;;;;;3.25;87.65;102733.63;6186469;23;20034;-81
2022/04/30 02:11:03;;;;;;;21.10;9.38;;;;;;;3.65;87.27;102781.19;6186127;23;20009;-81
2022/04/30 02:13:32;;;;;;;19.40;10.07;;;;;;;3.24;87.33;102719.97;6186616;23;20036;-81
2022/04/30 02:15:57;;;;;;;22.92;10.05;;;;;;;4.02;88.04;102850.91;6186798;23;20005;-81
2022/04/30 02:18:24;;;;;;;20.27;9.73;;;;;;;3.73;88.03;102802.44;6186247;23;20449;-81
2022/04/30 02:20:51;;;;;;;21.20;9.85;;;;;;;4.06;88.06;102861.13;6186602;23;20011;-81
2022/04/30 02:23:17;;;;;;;18.52;9.93;;;;;;;4.02;87.97;102863.69;6186508;23;20001;-81
2022/04/30 02:25:42;;;;;;;24.75;10.57;;;;;;;4.01;88.19;102858.56;6186588;23;20323;-81
2022/04/30 02:28:08;;;;;;;22.45;10.55;;;;;;;3.97;88.36;102854.34;6186098;23;20395;-81
2022/04/30 02:30:37;;;;;;;21.35;10.38;;;;;;;3.98;88.62;102859.44;6186301;23;20418;-81
2022/04/30 02:33:12;;;;;;;20.92;11.13;;;;;;;3.85;88.78;102833.94;6186389;23;20009;-81
2022/04/30 02:35:43;;;;;;;20.40;10.63;;;;;;;3.93;89.12;102850.97;6186535;23;20040;-81
2022/04/30 02:38:10;;;;;;;21.55;10.50;;;;;;;3.51;89.11;102782.91;6186220;23;20016;-80
2022/04/30 02:40:36;;;;;;;24.45;11.15;;;;;;;3.93;89.27;102852.63;6186115;23;20005;-81
2022/04/30 02:43:06;;;;;;;22.60;10.52;;;;;;;3.90;89.59;102847.53;6185847;23;20005;-81
2022/04/30 02:45:33;;;;;;;27.52;11.05;;;;;;;3.62;89.55;102806.72;6186318;23;20060;-81
2022/04/30 02:47:59;;;;;;;23.05;11.00;;;;;;;3.49;89.58;102781.22;6186083;23;20012;-81
2022/04/30 02:50:25;;;;;;;23.75;10.88;;;;;;;3.82;89.84;102844.16;6186304;23;20005;-81
2022/04/30 02:52:54;;;;;;;24.83;11.27;;;;;;;3.83;90.46;102840.72;6185755;23;20066;-81
2022/04/30 02:55:20;;;;;;;21.17;9.80;;;;;;;3.83;89.75;102840.72;6185766;23;20043;-81
2022/04/30 03:00:39;;;;;;;23.38;11.38;;;;;;;3.83;90.36;102841.56;6185841;23;20147;-81
2022/04/30 03:03:09;;;;;;;21.75;10.85;;;;;;;3.61;90.52;102797.34;6186203;23;20001;-81
2022/04/30 03:05:36;;;;;;;24.65;10.55;;;;;;;3.66;90.83;102808.44;6186186;23;20005;-82
2022/04/30 03:08:12;;;;;;;24.80;12.23;;;;;;;3.74;91.20;102824.59;6186086;23;20000;-81
2022/04/30 03:10:39;;;;;;;23.48;11.38;;;;;;;3.83;90.99;102843.28;6185728;23;20009;-81
2022/04/30 03:13:05;;;;;;;23.40;10.65;;;;;;;3.80;90.95;102844.16;6185430;23;20415;-81
2022/04/30 03:15:31;;;;;;;27.80;11.75;;;;;;;3.63;90.73;102818.63;6186191;23;20005;-81
2022/04/30 03:23:24;;;;;;;28.23;13.07;;;;;;;3.70;91.28;102814.38;6185608;23;20501;-81
2022/04/30 03:25:49;;;;;;;26.58;11.82;;;;;;;3.79;91.15;102832.22;6185531;23;20001;-81
2022/04/30 03:28:15;;;;;;;26.27;11.80;;;;;;;3.68;91.30;102803.31;6185388;23;20005;-81
2022/04/30 03:30:40;;;;;;;27.83;12.25;;;;;;;3.74;91.67;102827.16;6185826;23;20005;-81
2022/04/30 03:33:08;;;;;;;25.83;12.00;;;;;;;3.53;91.35;102801.63;6185955;23;20011;-81
2022/04/30 03:35:38;;;;;;;24.48;11.23;;;;;;;3.66;91.02;102828.03;6185955;23;20001;-81
2022/04/30 03:38:05;;;;;;;25.40;11.77;;;;;;;3.60;91.28;102820.34;6185400;23;20438;-81
2022/04/30 03:40:30;;;;;;;23.20;11.93;;;;;;;3.33;91.01;102785.50;6185437;23;20461;-81
2022/04/30 03:42:56;;;;;;;22.73;11.65;;;;;;;3.45;91.06;102824.66;6184940;23;20005;-81
2022/04/30 03:45:23;;;;;;;23.45;12.18;;;;;;;3.38;91.32;102819.53;6185651;23;20005;-81
2022/04/30 03:47:48;;;;;;;25.35;12.00;;;;;;;3.31;91.46;102822.94;6185480;23;20001;-81
2022/04/30 03:50:14;;;;;;;24.42;11.43;;;;;;;3.17;91.03;102808.50;6185799;23;20084;-80
2022/04/30 03:52:40;;;;;;;24.10;12.32;;;;;;;3.19;91.86;102805.09;6185689;23;20005;-80
2022/04/30 03:55:07;;;;;;;23.45;11.70;;;;;;;3.06;91.54;102799.16;6185661;23;20032;-80
2022/04/30 03:57:32;;;;;;;25.50;12.18;;;;;;;2.98;91.77;102794.03;6185908;23;20059;-79
2022/04/30 03:59:57;;;;;;;26.33;12.98;;;;;;;3.11;91.90;102817.84;6159160;23;20392;-80
2022/04/30 04:02:23;;;;;;;25.52;11.95;;;;;;;3.08;91.82;102812.75;6185736;23;20012;-80
2022/04/30 04:04:51;;;;;;;25.90;12.85;;;;;;;2.68;93.03;102745.56;6185618;23;20005;-80
2022/04/30 04:07:17;;;;;;;26.02;12.25;;;;;;;2.86;92.09;102788.94;6185257;23;20442;-79
2022/04/30 04:09:42;;;;;;;26.27;12.48;;;;;;;3.05;91.95;102820.44;6185972;23;20005;-80
2022/04/30 04:12:08;;;;;;;22.45;12.32;;;;;;;2.83;91.87;102794.03;6185508;23;20431;-80
2022/04/30 04:20:01;;;;;;;25.45;12.13;;;;;;;2.76;91.78;102790.63;6185624;23;20355;-80
2022/04/30 04:22:26;;;;;;;25.58;12.18;;;;;;;2.92;92.39;102821.25;6185567;23;20005;-80
2022/04/30 04:27:36;;;;;;;27.08;12.38;;;;;;;2.63;91.92;102778.69;6163275;23;20087;-81
2022/04/30 04:30:02;;;;;;;22.88;12.30;;;;;;;2.72;91.86;102794.00;6185194;23;20004;-81
2022/04/30 04:32:27;;;;;;;26.25;12.52;;;;;;;2.92;92.08;102824.66;6185655;23;20036;-80
2022/04/30 04:34:52;;;;;;;24.13;11.45;;;;;;;2.70;91.47;102790.63;6185512;23;20076;-81
2022/04/30 04:37:18;;;;;;;28.98;12.10;;;;;;;2.93;91.91;102825.50;6185312;23;20319;-81
2022/04/30 04:39:43;;;;;;;28.33;14.07;;;;;;;2.93;93.20;102808.47;6185395;23;20063;-80
2022/04/30 04:42:09;;;;;;;25.02;12.10;;;;;;;2.86;92.38;102809.34;6185528;23;20005;-81
2022/04/30 04:44:35;;;;;;;26.85;13.43;;;;;;;2.81;92.06;102800.81;6185046;23;20431;-80
2022/04/30 04:47:01;;;;;;;25.48;12.73;;;;;;;1.89;91.57;102634.16;6185602;23;20001;-80
2022/04/30 04:49:27;;;;;;;25.08;12.65;;;;;;;3.23;91.74;102842.53;6185140;23;20031;-82
2022/04/30 04:51:53;;;;;;;23.33;12.02;;;;;;;3.24;91.33;102829.75;6185177;23;20009;-81
2022/04/30 04:54:18;;;;;;;24.27;13.18;;;;;;;3.35;91.17;102835.72;6186813;23;20486;-80
2022/04/30 04:56:44;;;;;;;24.02;12.90;;;;;;;3.22;90.70;102799.97;6187170;23;20000;-80
2022/04/30 04:59:09;;;;;;;26.30;13.65;;;;;;;3.45;90.79;102817.00;6187352;23;20001;-80
2022/04/30 05:01:36;;;;;;;24.38;12.90;;;;;;;3.62;89.93;102832.25;6186804;23;20005;-80
2022/04/30 05:04:02;;;;;;;25.73;12.90;;;;;;;3.95;90.27;102851.78;6187204;23;20309;-80
2022/04/30 05:06:27;;;;;;;29.17;14.07;;;;;;;3.90;90.92;102806.66;6187173;23;20124;-79
2022/04/30 05:08:53;;;;;;;28.42;13.70;;;;;;;4.38;90.63;102855.88;6187288;23;20012;-80
2022/04/30 05:11:18;;;;;;;24.80;13.88;;;;;;;4.23;89.34;102811.63;6187322;23;20297;-80
2022/04/30 05:13:44;;;;;;;29.55;14.20;;;;;;;4.65;88.99;102855.75;6186839;23;20009;-81
2022/04/30 05:16:09;;;;;;;26.75;13.93;;;;;;;4.77;89.26;102857.38;6186989;23;20092;-79
2022/04/30 05:18:34;;;;;;;31.65;15.05;;;;;;;4.73;89.13;102833.53;6187202;23;20089;-80
2022/04/30 05:21:00;;;;;;;30.38;13.90;;;;;;;5.03;89.21;102860.63;6186966;23;20088;-80
2022/04/30 05:23:25;;;;;;;29.63;14.55;;;;;;;5.09;88.63;102841.78;6186846;23;20001;-79
2022/04/30 05:25:50;;;;;;;28.30;13.63;;;;;;;5.25;88.62;102863.00;6186897;23;20001;-78
2022/04/30 05:28:16;;;;;;;30.73;15.00;;;;;;;5.37;88.43;102858.63;6185691;23;20047;-78
2022/04/30 05:30:41;;;;;;;29.20;14.48;;;;;;;5.47;87.54;102856.81;6159891;23;20009;-78
2022/04/30 05:33:07;;;;;;;33.17;14.57;;;;;;;5.48;87.41;102846.56;6186792;23;20004;-77
2022/04/30 05:35:32;;;;;;;26.27;13.68;;;;;;;5.59;87.42;102854.13;6186864;23;20331;-78
2022/04/30 05:37:57;;;;;;;26.90;14.25;;;;;;;5.76;87.17;102834.31;6186556;23;20040;-78
2022/04/30 05:40:23;;;;;;;32.30;14.20;;;;;;;6.69;85.15;102852.88;6186973;23;20011;-80
2022/04/30 05:42:48;;;;;;;28.00;13.90;;;;;;;7.84;81.10;102863.78;6160354;23;20079;-81
2022/04/30 05:45:13;;;;;;;26.92;13.48;;;;;;;9.09;75.86;102845.66;6186580;23;20023;-79
2022/04/30 05:47:39;;;;;;;23.58;12.55;;;;;;;10.42;70.81;102853.25;6186975;23;20370;-81
2022/04/30 05:50:06;;;;;;;20.48;11.25;;;;;;;11.28;67.30;102855.66;6187092;23;20092;-79
2022/04/30 05:52:33;;;;;;;21.52;12.40;;;;;;;12.01;63.61;102842.78;6186690;23;20040;-79
2022/04/30 05:55:00;;;;;;;19.63;10.55;;;;;;;12.44;61.48;102835.97;6186371;23;20096;-79
2022/04/30 05:57:26;;;;;;;22.73;10.70;;;;;;;12.93;59.73;102819.31;6187005;23;20064;-85
2022/04/30 05:59:51;;;;;;;20.23;10.48;;;;;;;13.81;57.64;102847.59;6186471;23;20478;-84
2022/04/30 06:02:16;;;;;;;20.13;10.45;;;;;;;14.06;55.63;102823.06;6186340;23;20343;-80
2022/04/30 06:04:43;;;;;;;19.50;10.05;;;;;;;14.60;53.94;102847.38;6159670;23;20033;-79
2022/04/30 06:07:08;;;;;;;20.58;10.38;;;;;;;15.06;53.06;102849.53;6186829;23;20047;-79
2022/04/30 06:09:33;;;;;;;19.88;10.13;;;;;;;15.10;51.48;102807.66;6186611;23;20009;-79
2022/04/30 06:11:59;;;;;;;18.23;9.63;;;;;;;15.40;51.34;102851.25;6186681;23;20419;-78
2022/04/30 06:14:24;;;;;;;19.10;10.10;;;;;;;15.64;50.34;102821.38;6186376;23;20005;-79
2022/04/30 06:16:50;;;;;;;18.08;10.60;;;;;;;15.68;49.85;102825.50;6159615;23;20005;-80
2022/04/30 06:19:47;;;;;;;18.58;10.65;;;;;;;15.90;49.25;102843.44;6186744;23;20005;-79
2022/04/30 06:22:15;;;;;;;19.45;10.23;;;;;;;16.18;48.51;102852.38;6159871;23;20036;-79
2022/04/30 06:24:41;;;;;;;19.08;10.18;;;;;;;15.24;48.53;102723.69;6186066;23;20009;-79
2022/04/30 06:27:15;;;;;;;16.80;9.95;;;;;;;15.53;49.14;102703.88;6186102;23;20433;-79
2022/04/30 06:29:40;;;;;;;16.95;9.90;;;;;;;16.53;46.94;102853.06;6186367;23;20001;-80
2022/04/30 06:32:06;;;;;;;18.90;9.75;;;;;;;15.43;47.62;102702.69;6186382;23;20076;-80
2022/04/30 06:34:31;;;;;;;15.48;9.90;;;;;;;16.18;47.35;102841.94;6186648;23;20004;-81
2022/04/30 06:36:57;;;;;;;15.88;10.50;;;;;;;16.51;46.85;102857.50;6186036;23;20009;-87
2022/04/30 06:39:47;;;;;;;20.10;10.15;;;;;;;16.97;49.09;102854.94;6186487;23;20035;-79
2022/04/30 06:42:23;;;;;;;;;;;;;;;;;;;;;
2022/04/30 06:44:51;;;;;;;18.35;10.00;;;;;;;17.29;45.68;102853.88;6085670;23;20019;-79
2022/04/30 06:47:18;;;;;;;16.73;9.88;;;;;;;17.71;44.49;102844.44;6185591;23;20008;-80
2022/04/30 06:49:44;;;;;;;15.02;9.80;;;;;;;17.91;43.36;102846.69;6185894;23;20009;-80
2022/04/30 06:52:09;;;;;;;17.40;9.32;;;;;;;17.87;43.79;102846.94;6186262;23;20012;-80
2022/04/30 06:57:21;;;;;;;15.07;9.18;;;;;;;18.47;42.82;102850.09;6186244;23;20029;-80
2022/04/30 06:59:51;;;;;;;15.27;9.65;;;;;;;18.09;42.22;102807.22;6159800;23;20392;-80
2022/04/30 07:02:21;;;;;;;16.42;9.32;;;;;;;18.31;42.02;102846.78;6186024;23;20033;-80
2022/04/30 07:04:49;;;;;;;16.83;8.90;;;;;;;18.39;42.18;102848.91;6186124;23;20016;-80
2022/04/30 07:07:15;;;;;;;18.25;9.00;;;;;;;18.48;41.34;102848.31;6186125;23;20005;-80
2022/04/30 07:09:41;;;;;;;16.70;8.95;;;;;;;18.07;42.47;102817.78;6185958;23;20012;-77
2022/04/30 07:12:09;;;;;;;19.35;8.93;;;;;;;17.90;42.59;102786.66;6185775;23;20420;-79
2022/04/30 07:14:40;;;;;;;14.15;9.20;;;;;;;17.97;41.79;102848.06;6185803;23;20375;-80
2022/04/30 07:17:06;;;;;;;13.77;8.83;;;;;;;17.56;43.71;102847.94;6186022;23;20016;-82
2022/04/30 07:19:32;;;;;;;19.63;10.15;;;;;;;16.26;44.99;102814.53;6185829;23;20012;-81
2022/04/30 07:21:58;;;;;;;18.63;9.52;;;;;;;15.31;47.84;102855.16;6186035;23;20005;-81
2022/04/30 07:24:23;;;;;;;15.18;9.50;;;;;;;14.27;51.61;102856.75;6185676;23;20016;-82
2022/04/30 07:26:49;;;;;;;17.45;9.13;;;;;;;13.51;52.56;102850.63;6185960;23;20011;-81
2022/04/30 07:29:14;;;;;;;19.73;9.05;;;;;;;13.09;54.92;102855.84;6185571;23;20080;-79
2022/04/30 07:31:39;;;;;;;16.02;9.00;;;;;;;12.41;54.86;102834.34;6185740;23;20059;-78
2022/04/30 07:34:05;;;;;;;15.20;8.73;;;;;;;11.81;56.88;102796.91;6185929;23;20013;-79
2022/04/30 07:36:31;;;;;;;18.95;10.25;;;;;;;11.69;57.78;102862.84;6185594;23;20001;-80
2022/04/30 07:38:57;;;;;;;17.25;9.60;;;;;;;11.22;59.40;102811.94;6185769;23;20008;-78
2022/04/30 07:41:23;;;;;;;15.88;9.50;;;;;;;11.40;60.39;102856.09;6159078;23;20169;-79
2022/04/30 07:43:48;;;;;;;18.02;8.75;;;;;;;11.22;60.57;102854.16;6185575;23;20085;-79
2022/04/30 07:46:13;;;;;;;17.27;10.05;;;;;;;10.96;60.67;102812.78;6159494;23;20013;-79
2022/04/30 07:48:39;;;;;;;18.88;9.88;;;;;;;11.12;61.13;102843.25;6185367;23;20005;-79
2022/04/30 07:51:13;;;;;;;14.45;8.85;;;;;;;11.46;61.87;102849.88;6185527;23;20001;-79
2022/04/30 07:53:39;;;;;;;15.43;9.63;;;;;;;11.56;60.87;102848.66;6185370;23;20074;-79
2022/04/30 07:56:05;;;;;;;19.45;10.05;;;;;;;11.58;60.25;102853.78;6185749;23;20076;-78
2022/04/30 07:58:30;;;;;;;15.00;9.02;;;;;;;11.61;59.63;102844.19;6185796;23;20009;-76
2022/04/30 08:00:55;;;;;;;20.00;7.80;;;;;;;11.90;59.72;102845.75;6158504;23;20016;-79
2022/04/30 08:03:20;;;;;;;17.58;9.30;;;;;;;12.13;58.74;102841.47;6185428;23;20009;-79
2022/04/30 08:05:46;;;;;;;18.52;8.88;;;;;;;12.07;57.82;102821.81;6185279;23;20005;-79
2022/04/30 08:08:11;;;;;;;17.08;8.40;;;;;;;12.06;58.72;102838.25;6185485;23;20008;-79
2022/04/30 08:10:36;;;;;;;14.55;7.90;;;;;;;12.05;58.22;102818.44;6185302;23;20008;-79
2022/04/30 08:13:02;;;;;;;15.10;8.00;;;;;;;12.01;58.59;102784.06;6185442;23;19997;-78
2022/04/30 08:15:28;;;;;;;21.75;9.25;;;;;;;12.63;57.57;102842.13;6185776;23;20012;-79
2022/04/30 08:17:54;;;;;;;15.63;8.05;;;;;;;12.70;56.28;102840.97;6185877;23;20016;-79
2022/04/30 08:20:19;;;;;;;14.40;8.43;;;;;;;12.47;56.65;102782.25;6185157;23;19997;-80
2022/04/30 08:22:45;;;;;;;26.70;8.73;;;;;;;12.83;56.58;102820.59;6185485;23;20064;-81
2022/04/30 08:25:10;;;;;;;17.98;8.20;;;;;;;12.99;56.08;102833.78;6185311;23;20427;-80
2022/04/30 08:27:36;;;;;;;13.88;7.53;;;;;;;12.89;54.87;102833.31;6185731;23;20007;-80
2022/04/30 08:30:01;;;;;;;14.23;7.97;;;;;;;12.58;55.87;102823.31;6187772;23;20446;-79
2022/04/30 08:32:27;;;;;;;12.85;8.25;;;;;;;12.38;56.91;102838.78;6187109;23;20036;-80
2022/04/30 08:34:53;;;;;;;19.38;8.60;;;;;;;11.99;56.61;102821.25;6186890;23;20008;-79
2022/04/30 08:37:19;;;;;;;13.52;8.48;;;;;;;11.66;58.67;102813.78;6161619;23;20331;-80
2022/04/30 08:39:44;;;;;;;16.38;8.35;;;;;;;11.21;59.63;102780.06;6187277;23;20088;-82
2022/04/30 08:42:12;;;;;;;15.57;8.85;;;;;;;11.30;60.80;102831.44;6187486;23;20005;-78
2022/04/30 08:44:38;;;;;;;15.63;8.90;;;;;;;10.81;61.09;102775.34;6187174;23;20445;-81
2022/04/30 08:47:04;;;;;;;15.63;8.75;;;;;;;11.03;61.63;102824.63;6187284;23;20001;-78
2022/04/30 08:49:31;;;;;;;18.02;9.18;;;;;;;10.83;61.36;102796.84;6187424;23;20008;-80
2022/04/30 08:51:56;;;;;;;18.25;8.95;;;;;;;11.17;61.74;102825.00;6187260;23;20005;-80
2022/04/30 08:54:22;;;;;;;17.98;9.30;;;;;;;11.19;61.13;102812.84;6186879;23;20070;-82
2022/04/30 08:56:52;;;;;;;18.60;9.18;;;;;;;11.41;61.49;102824.19;6187131;23;20011;-78
2022/04/30 08:59:18;;;;;;;18.50;10.15;;;;;;;11.62;60.65;102821.72;6187269;23;20055;-77
2022/04/30 09:01:48;;;;;;;17.33;9.00;;;;;;;11.60;59.27;102797.63;6186936;23;20005;-79
2022/04/30 09:04:13;;;;;;;13.38;8.65;;;;;;;11.90;58.08;102821.63;6187032;23;20005;-78
2022/04/30 09:06:46;;;;;;;16.55;9.45;;;;;;;12.07;58.82;102811.47;6187125;23;20379;-79
2022/04/30 09:09:21;;;;;;;16.00;8.43;;;;;;;12.15;56.70;102818.94;6186930;23;20009;-79
2022/04/30 09:11:47;;;;;;;13.88;8.45;;;;;;;12.21;55.71;102814.38;6187056;23;20001;-78
2022/04/30 09:14:12;;;;;;;14.85;8.50;;;;;;;12.18;56.03;102795.50;6186843;23;20008;-80
2022/04/30 09:16:38;;;;;;;16.95;8.90;;;;;;;12.28;55.45;102794.25;6186883;23;20001;-81
2022/04/30 09:19:04;;;;;;;16.35;8.77;;;;;;;12.41;55.71;102773.91;6185992;23;20009;-81
2022/04/30 09:21:29;;;;;;;15.88;8.70;;;;;;;12.87;55.00;102810.00;6186739;23;19997;-80
2022/04/30 09:24:05;;;;;;;13.25;8.05;;;;;;;12.54;54.41;102773.34;6187040;23;20005;-81
2022/04/30 09:26:40;;;;;;;13.60;8.50;;;;;;;12.73;54.99;102796.78;6135239;23;20037;-79
2022/04/30 09:29:20;;;;;;;18.48;8.93;;;;;;;12.73;55.36;102759.66;6186626;23;20008;-80
2022/04/30 09:31:51;;;;;;;15.90;8.90;;;;;;;13.08;53.30;102773.75;6186854;23;20001;-79
2022/04/30 09:39:45;;;;;;;12.18;7.18;;;;;;;12.65;51.41;102772.91;6185953;23;20202;-83
2022/04/30 09:42:11;;;;;;;12.40;7.70;;;;;;;12.58;52.11;102784.44;6159108;23;20088;-82
2022/04/30 09:44:37;;;;;;;19.05;8.30;;;;;;;12.79;51.53;102787.94;6186643;23;20020;-79
2022/04/30 09:47:07;;;;;;;13.68;7.35;;;;;;;12.71;51.86;102761.47;6187000;23;20013;-79
2022/04/30 09:55:03;;;;;;;14.45;7.32;;;;;;;13.13;50.28;102793.38;6186790;23;20383;-81
2022/04/30 09:57:32;;;;;;;12.82;7.60;;;;;;;13.21;50.44;102777.53;6186676;23;20002;-79
2022/04/30 09:59:59;;;;;;;13.85;7.80;;;;;;;13.37;50.30;102791.53;6186725;23;20354;-80
2022/04/30 10:02:30;;;;;;;14.95;7.90;;;;;;;13.51;50.33;102764.97;6186289;23;20000;-79
2022/04/30 10:04:56;;;;;;;13.70;7.75;;;;;;;13.80;48.54;102783.59;6186341;23;20377;-80
2022/04/30 10:07:24;;;;;;;12.98;7.47;;;;;;;13.78;47.60;102776.72;6186627;23;20339;-80
2022/04/30 10:10:08;;;;;;;13.50;7.30;;;;;;;13.68;49.20;102772.00;6186467;23;20062;-79
2022/04/30 10:12:52;;;;;;;12.70;7.82;;;;;;;13.82;48.96;102769.59;6186198;23;20423;-81
2022/04/30 10:15:22;;;;;;;13.80;7.40;;;;;;;13.94;47.98;102782.03;6186683;23;20009;-80
2022/04/30 10:18:18;;;;;;;13.30;8.00;;;;;;;14.19;48.34;102778.31;6186881;23;20036;-80
2022/04/30 10:20:50;;;;;;;12.07;8.00;;;;;;;14.13;47.33;102737.84;6186082;23;20427;-80
2022/04/30 10:23:16;;;;;;;12.48;7.60;;;;;;;14.10;46.52;102716.38;6186376;23;20004;-79
2022/04/30 10:25:44;;;;;;;14.73;8.35;;;;;;;14.32;46.43;102715.25;6186034;23;20001;-81
2022/04/30 10:28:23;;;;;;;16.52;9.27;;;;;;;14.56;47.13;102730.63;6186739;23;20005;-80
2022/04/30 10:31:03;;;;;;;18.25;8.65;;;;;;;14.63;47.19;102732.81;6186638;23;20032;-80
2022/04/30 10:33:29;;;;;;;15.15;8.90;;;;;;;14.27;47.15;102680.88;6186168;23;20009;-80
2022/04/30 10:36:09;;;;;;;17.48;9.20;;;;;;;14.76;47.91;102730.47;6186354;23;20032;-77
2022/04/30 10:38:36;;;;;;;15.65;8.73;;;;;;;14.70;45.69;102745.53;6186248;23;20335;-77
2022/04/30 10:41:02;;;;;;;13.48;8.20;;;;;;;14.52;46.40;102745.50;6186036;23;20070;-77
2022/04/30 10:43:40;;;;;;;13.00;7.80;;;;;;;14.43;45.81;102745.09;6186331;23;20363;-78
2022/04/30 10:46:23;;;;;;;12.40;7.43;;;;;;;14.47;46.82;102729.31;6186034;23;20005;-78
2022/04/30 10:48:49;;;;;;;12.18;7.53;;;;;;;14.33;45.15;102716.09;6185647;23;20009;-77
2022/04/30 10:51:30;;;;;;;16.42;6.80;;;;;;;14.52;44.49;102716.06;6185431;23;20032;-80
2022/04/30 10:53:58;;;;;;;12.13;7.80;;;;;;;14.79;43.26;102725.09;6186205;23;20005;-84
2022/04/30 10:56:27;;;;;;;12.75;7.07;;;;;;;14.68;44.41;102696.19;6186267;23;20432;-83
2022/04/30 10:58:52;;;;;;;14.60;7.97;;;;;;;14.58;46.95;102719.22;6186315;23;20423;-84
2022/04/30 11:01:19;;;;;;;14.48;7.72;;;;;;;14.28;46.33;102725.91;6186133;23;20064;-84
2022/04/30 11:03:48;;;;;;;17.70;8.15;;;;;;;14.13;45.11;102724.03;6185816;23;20005;-77
2022/04/30 11:06:22;;;;;;;14.07;7.72;;;;;;;14.03;45.61;102718.41;6186038;23;20043;-78
2022/04/30 11:09:07;;;;;;;12.90;7.88;;;;;;;14.10;46.67;102721.56;6185502;23;20005;-76
2022/04/30 11:11:34;;;;;;;12.63;7.68;;;;;;;13.74;46.52;102654.88;6185943;23;20388;-77
2022/04/30 11:14:05;;;;;;;15.05;8.50;;;;;;;13.93;45.25;102712.81;6185856;23;20005;-84
2022/04/30 11:16:35;;;;;;;14.55;8.10;;;;;;;13.88;46.32;102701.81;6158458;23;20380;-77
2022/04/30 11:19:04;;;;;;;13.38;7.15;;;;;;;13.93;45.19;102707.63;6186152;23;20028;-82
2022/04/30 11:21:39;;;;;;;12.00;5.97;;;;;;;13.99;43.73;102706.50;6185675;23;20024;-82
2022/04/30 11:24:08;;;;;;;16.45;6.57;;;;;;;13.99;43.09;102691.75;6185573;23;20052;-75
2022/04/30 11:26:37;;;;;;;10.00;5.95;;;;;;;13.94;46.53;102646.97;6185824;23;20012;-78
2022/04/30 11:29:13;;;;;;;12.20;6.45;;;;;;;14.03;42.03;102688.09;6186201;23;20012;-82
2022/04/30 11:31:41;;;;;;;12.90;6.78;;;;;;;13.71;43.36;102688.78;6185971;23;20032;-79
2022/04/30 11:34:15;;;;;;;11.43;6.10;;;;;;;13.49;43.55;102665.56;6185863;23;20009;-79
2022/04/30 11:36:44;;;;;;;13.25;6.88;;;;;;;13.95;45.54;102689.38;6185448;23;20080;-82
2022/04/30 11:39:11;;;;;;;14.07;7.18;;;;;;;14.09;44.32;102666.19;6185677;23;20046;-78
2022/04/30 11:41:48;;;;;;;14.35;7.25;;;;;;;14.49;43.50;102682.44;6185447;23;20489;-83
2022/04/30 11:44:15;;;;;;;12.32;7.47;;;;;;;14.87;42.06;102683.09;6185471;23;20009;-79
2022/04/30 11:46:42;;;;;;;17.25;8.43;;;;;;;15.00;43.32;102685.91;6185642;23;20005;-82
2022/04/30 11:49:18;;;;;;;13.95;8.35;;;;;;;14.81;44.53;102658.25;6185322;23;20339;-80
2022/04/30 11:51:44;;;;;;;15.18;8.13;;;;;;;14.82;46.37;102677.28;6185803;23;20016;-81
2022/04/30 11:54:11;;;;;;;18.80;9.20;;;;;;;14.46;46.30;102674.81;6184912;23;20419;-82
2022/04/30 11:56:38;;;;;;;15.63;9.68;;;;;;;14.04;47.09;102679.38;6185318;23;20001;-81
2022/04/30 11:59:04;;;;;;;14.73;9.70;;;;;;;13.51;48.33;102673.28;6185637;23;20062;-86